Terminal Aerodrome Forecast
Issued by NWS Tampa Bay Area, FL

Home | Current Version | Previous Version | Text Only | Print | Product List | Glossary On
Versions: 1 2 3 4 5 6 7 8 9 10 11 12 13 14 15 16
334
FTUS42 KTBW 240524
TAFFMY
TAF
KFMY 240524Z 2406/2506 09004KT P6SM FEW060
     FM240900 VRB04KT 6SM BR SKC
     FM241300 12008KT P6SM SCT025
     FM242100 18008KT P6SM FEW030 SCT050
     FM250200 14004KT P6SM SCT060=

USA.gov is the U.S. government's official web portal to all federal, state and local government web resources and services.